Time;durP1;ratioP1;P1;durP2;ratioP2;P2;SDS_P1;SDS_P2;PMS_P1;PMS_P2;Temp;Humidity;BMP_temperature;BMP_pressure;BME280_temperature;BME280_humidity;BME280_pressure;Samples;Min_cycle;Max_cycle;Signal;HPM_P1;HPM_P2
2021/03/19 00:01:27;;;;;;;8.77;3.25;;;;;;;;;;4989198;28;20032;-65
2021/03/19 00:03:52;;;;;;;7.00;3.03;;;;;;;;;;4988807;28;20022;-64
2021/03/19 00:06:18;;;;;;;7.15;3.42;;;;;;;;;;4988325;28;20048;-64
2021/03/19 00:08:43;;;;;;;8.45;2.92;;;;;;;;;;4988911;28;20146;-64
2021/03/19 00:11:09;;;;;;;6.65;3.33;;;;;;;;;;4990286;28;20018;-65
2021/03/19 00:13:34;;;;;;;7.25;2.80;;;;;;;;;;4996422;28;20437;-65
2021/03/19 00:15:59;;;;;;;8.77;2.58;;;;;;;;;;4997223;28;20109;-65
2021/03/19 00:18:25;;;;;;;7.72;2.53;;;;;;;;;;5003311;28;20025;-64
2021/03/19 00:20:51;;;;;;;9.55;2.45;;;;;;;;;;5006025;28;20034;-65
2021/03/19 00:23:16;;;;;;;7.28;2.60;;;;;;;;;;4994046;28;20022;-65
2021/03/19 00:25:42;;;;;;;7.50;2.92;;;;;;;;;;5002514;28;20493;-65
2021/03/19 00:28:13;;;;;;;8.68;2.90;;;;;;;;;;4996413;28;20034;-64
2021/03/19 00:30:38;;;;;;;7.90;3.15;;;;;;;;;;5002837;28;20032;-64
2021/03/19 00:33:04;;;;;;;4.82;2.80;;;;;;;;;;4993082;28;20026;-65
2021/03/19 00:35:39;;;;;;;9.85;2.58;;;;;;;;;;4992665;28;20089;-65
2021/03/19 00:38:05;;;;;;;6.30;2.45;;;;;;;;;;4993432;28;20592;-65
2021/03/19 00:40:31;;;;;;;8.43;2.65;;;;;;;;;;4993520;28;20038;-64
2021/03/19 00:42:56;;;;;;;6.25;2.78;;;;;;;;;;4992046;28;20026;-64
2021/03/19 00:45:23;;;;;;;7.05;2.45;;;;;;;;;;4992996;28;20050;-64
2021/03/19 00:47:49;;;;;;;11.38;4.20;;;;;;;;;;4993541;28;20066;-64
2021/03/19 00:50:16;;;;;;;8.52;3.25;;;;;;;;;;4993395;28;20065;-65
2021/03/19 00:52:41;;;;;;;10.57;3.67;;;;;;;;;;4993679;28;20444;-64
2021/03/19 00:55:08;;;;;;;6.47;3.58;;;;;;;;;;4993389;28;20073;-65
2021/03/19 00:57:34;;;;;;;10.30;4.50;;;;;;;;;;4993485;28;20021;-65
2021/03/19 00:59:59;;;;;;;11.00;4.68;;;;;;;;;;4993516;28;20014;-64
2021/03/19 01:02:24;;;;;;;10.77;5.47;;;;;;;;;;4993511;28;20542;-65
2021/03/19 01:04:49;;;;;;;10.23;5.43;;;;;;;;;;4993353;28;20041;-64
2021/03/19 01:07:15;;;;;;;12.07;6.10;;;;;;;;;;4993526;28;20022;-64
2021/03/19 01:09:40;;;;;;;11.80;6.45;;;;;;;;;;4993273;28;20038;-64
2021/03/19 01:12:05;;;;;;;13.82;7.13;;;;;;;;;;4993616;28;20014;-64
2021/03/19 01:14:31;;;;;;;15.70;8.00;;;;;;;;;;4993255;28;20038;-65
2021/03/19 01:16:56;;;;;;;13.65;7.18;;;;;;;;;;4993359;28;20034;-65
2021/03/19 01:19:21;;;;;;;13.90;7.25;;;;;;;;;;4990199;28;20081;-65
2021/03/19 01:21:47;;;;;;;16.20;6.95;;;;;;;;;;4992318;28;20018;-65
2021/03/19 01:24:12;;;;;;;11.38;7.40;;;;;;;;;;4992962;28;20154;-65
2021/03/19 01:26:37;;;;;;;14.65;7.57;;;;;;;;;;4993013;28;20018;-64
2021/03/19 01:29:04;;;;;;;17.27;7.88;;;;;;;;;;4992932;28;20093;-65
2021/03/19 01:31:30;;;;;;;12.02;7.60;;;;;;;;;;4993365;28;20061;-64
2021/03/19 01:33:55;;;;;;;15.32;8.20;;;;;;;;;;4994658;28;20026;-65
2021/03/19 01:36:20;;;;;;;12.77;7.70;;;;;;;;;;4997016;28;20056;-65
2021/03/19 01:38:46;;;;;;;17.15;9.40;;;;;;;;;;4992717;28;20030;-65
2021/03/19 01:41:11;;;;;;;13.88;8.85;;;;;;;;;;4996006;28;20030;-64
2021/03/19 01:43:39;;;;;;;15.82;9.52;;;;;;;;;;4995175;28;20022;-65
2021/03/19 01:46:23;;;;;;;13.40;8.40;;;;;;;;;;4995936;28;20041;-64
2021/03/19 01:49:07;;;;;;;16.75;9.25;;;;;;;;;;4996274;28;20356;-65
2021/03/19 01:51:51;;;;;;;18.13;9.75;;;;;;;;;;4996622;28;20030;-65
2021/03/19 01:54:35;;;;;;;18.15;9.80;;;;;;;;;;4996023;28;20486;-65
2021/03/19 01:57:19;;;;;;;13.48;8.63;;;;;;;;;;4996474;28;20030;-64
2021/03/19 02:00:02;;;;;;;17.02;9.75;;;;;;;;;;4996034;28;20518;-64
2021/03/19 02:02:46;;;;;;;21.05;10.85;;;;;;;;;;4995080;28;20034;-64
2021/03/19 02:05:30;;;;;;;19.05;10.30;;;;;;;;;;4996295;28;20113;-64
2021/03/19 02:08:14;;;;;;;18.55;9.95;;;;;;;;;;4996269;28;20042;-64
2021/03/19 02:10:58;;;;;;;20.67;10.70;;;;;;;;;;4996178;28;20506;-64
2021/03/19 02:13:42;;;;;;;19.27;10.52;;;;;;;;;;4996162;28;20030;-65
2021/03/19 02:16:26;;;;;;;17.27;9.68;;;;;;;;;;4995998;28;20038;-65
2021/03/19 02:19:09;;;;;;;17.67;9.70;;;;;;;;;;4995880;28;20030;-65
2021/03/19 02:21:53;;;;;;;15.27;9.77;;;;;;;;;;4996087;28;20520;-64
2021/03/19 02:24:37;;;;;;;16.98;10.60;;;;;;;;;;4995871;28;20113;-64
2021/03/19 02:27:21;;;;;;;19.80;10.40;;;;;;;;;;4995955;28;20029;-64
2021/03/19 02:30:04;;;;;;;15.95;10.05;;;;;;;;;;4995725;28;20035;-64
2021/03/19 02:32:30;;;;;;;13.95;7.30;;;;;;;;;;4995495;28;20459;-64
2021/03/19 02:34:57;;;;;;;18.67;10.70;;;;;;;;;;4995630;28;20061;-64
2021/03/19 02:37:24;;;;;;;19.63;10.00;;;;;;;;;;4995737;28;20026;-65
2021/03/19 02:39:50;;;;;;;19.10;11.10;;;;;;;;;;4995674;28;20022;-64
2021/03/19 02:42:16;;;;;;;20.65;10.43;;;;;;;;;;4995739;28;20533;-64
2021/03/19 02:44:42;;;;;;;22.38;10.68;;;;;;;;;;4994996;28;20058;-64
2021/03/19 02:47:08;;;;;;;19.38;11.25;;;;;;;;;;4995740;28;20028;-64
2021/03/19 02:49:33;;;;;;;18.38;10.43;;;;;;;;;;4995472;28;20383;-64
2021/03/19 02:51:59;;;;;;;19.30;10.32;;;;;;;;;;4995246;28;20022;-64
2021/03/19 02:54:24;;;;;;;16.77;10.35;;;;;;;;;;4995327;28;20113;-65
2021/03/19 02:56:50;;;;;;;19.73;10.90;;;;;;;;;;4995224;28;20030;-65
2021/03/19 02:59:15;;;;;;;19.65;10.90;;;;;;;;;;4995020;28;20029;-64
2021/03/19 03:01:40;;;;;;;21.15;9.95;;;;;;;;;;4994981;28;20022;-65
2021/03/19 03:04:06;;;;;;;17.42;9.80;;;;;;;;;;4994895;28;20038;-64
2021/03/19 03:06:54;;;;;;;19.90;8.88;;;;;;;;;;4995257;28;20407;-65
2021/03/19 03:09:22;;;;;;;18.38;10.40;;;;;;;;;;4994356;28;20050;-65
2021/03/19 03:11:47;;;;;;;21.60;10.95;;;;;;;;;;4995044;28;20026;-65
2021/03/19 03:14:14;;;;;;;17.52;10.38;;;;;;;;;;4994998;28;20077;-64
2021/03/19 03:16:40;;;;;;;21.17;11.48;;;;;;;;;;4994957;28;20026;-65
2021/03/19 03:19:07;;;;;;;18.48;10.57;;;;;;;;;;4994975;28;20104;-65
2021/03/19 03:21:33;;;;;;;20.58;10.73;;;;;;;;;;4994968;28;20034;-65
2021/03/19 03:23:58;;;;;;;18.90;10.80;;;;;;;;;;4994839;28;20034;-64
2021/03/19 03:26:24;;;;;;;22.20;10.88;;;;;;;;;;4994871;28;20030;-65
2021/03/19 03:28:49;;;;;;;23.10;11.07;;;;;;;;;;4994893;28;20113;-65
2021/03/19 03:31:14;;;;;;;20.60;11.57;;;;;;;;;;4994674;28;20538;-65
2021/03/19 03:33:39;;;;;;;24.27;11.40;;;;;;;;;;4994827;28;20043;-64
2021/03/19 03:36:05;;;;;;;19.63;10.80;;;;;;;;;;4994793;28;20042;-64
2021/03/19 03:38:31;;;;;;;22.05;10.70;;;;;;;;;;4994710;28;20561;-64
2021/03/19 03:41:07;;;;;;;21.83;10.00;;;;;;;;;;4993642;28;20537;-65
2021/03/19 03:43:32;;;;;;;21.27;10.52;;;;;;;;;;4994324;28;20056;-65
2021/03/19 03:45:57;;;;;;;19.38;11.07;;;;;;;;;;4994061;28;20527;-64
2021/03/19 03:48:24;;;;;;;22.45;11.10;;;;;;;;;;4994348;28;20022;-64
2021/03/19 03:50:50;;;;;;;19.95;10.35;;;;;;;;;;4994281;28;20371;-65
2021/03/19 03:53:16;;;;;;;18.67;11.00;;;;;;;;;;4994488;28;20042;-65
2021/03/19 03:55:41;;;;;;;17.95;10.00;;;;;;;;;;4993758;28;20447;-65
2021/03/19 03:58:07;;;;;;;21.88;10.52;;;;;;;;;;4994217;28;20061;-65
2021/03/19 04:00:33;;;;;;;17.00;10.18;;;;;;;;;;4994183;28;20456;-64
2021/03/19 04:02:59;;;;;;;21.30;10.65;;;;;;;;;;4994174;28;20037;-65
2021/03/19 04:05:26;;;;;;;20.33;11.15;;;;;;;;;;4994409;28;20034;-65
2021/03/19 04:07:52;;;;;;;16.92;10.15;;;;;;;;;;4993809;28;20498;-65
2021/03/19 04:10:18;;;;;;;22.00;10.18;;;;;;;;;;4994025;28;20015;-65
2021/03/19 04:12:44;;;;;;;18.75;10.13;;;;;;;;;;4993966;28;20042;-65
2021/03/19 04:15:09;;;;;;;19.80;10.70;;;;;;;;;;4993853;28;20046;-65
2021/03/19 04:17:35;;;;;;;17.75;8.98;;;;;;;;;;4993960;28;20041;-65
2021/03/19 04:20:01;;;;;;;19.58;10.27;;;;;;;;;;4993878;28;20034;-65
2021/03/19 04:22:26;;;;;;;16.92;8.98;;;;;;;;;;4993906;28;20486;-66
2021/03/19 04:24:54;;;;;;;18.85;9.95;;;;;;;;;;4993811;28;20022;-65
2021/03/19 04:27:20;;;;;;;17.58;9.02;;;;;;;;;;4993866;28;20039;-65
2021/03/19 04:29:46;;;;;;;20.83;10.18;;;;;;;;;;4993686;28;20041;-65
2021/03/19 04:32:12;;;;;;;20.30;10.13;;;;;;;;;;4994142;28;20030;-65
2021/03/19 04:34:37;;;;;;;18.50;9.40;;;;;;;;;;4993557;28;20050;-65
2021/03/19 04:37:03;;;;;;;15.18;8.77;;;;;;;;;;4993782;28;20096;-65
2021/03/19 04:39:30;;;;;;;15.95;9.57;;;;;;;;;;4993198;28;20018;-65
2021/03/19 04:41:56;;;;;;;15.98;9.88;;;;;;;;;;4993578;28;20031;-65
2021/03/19 04:44:23;;;;;;;16.30;9.40;;;;;;;;;;4993144;28;20050;-66
2021/03/19 04:46:48;;;;;;;24.05;10.43;;;;;;;;;;4993560;28;20030;-65
2021/03/19 04:49:13;;;;;;;17.63;10.07;;;;;;;;;;4993642;28;20027;-65
2021/03/19 04:51:39;;;;;;;22.65;10.88;;;;;;;;;;4993563;28;20035;-65
2021/03/19 04:54:04;;;;;;;20.52;10.25;;;;;;;;;;4993526;28;20364;-65
2021/03/19 04:56:30;;;;;;;17.42;10.50;;;;;;;;;;4993365;28;20022;-65
2021/03/19 04:58:55;;;;;;;16.50;10.60;;;;;;;;;;4993299;28;20471;-65
2021/03/19 05:01:20;;;;;;;20.52;11.13;;;;;;;;;;4993410;28;20014;-65
2021/03/19 05:03:47;;;;;;;21.70;10.63;;;;;;;;;;4993193;28;20034;-65
2021/03/19 05:06:13;;;;;;;19.63;11.85;;;;;;;;;;4993086;28;20563;-65
2021/03/19 05:08:39;;;;;;;19.58;10.60;;;;;;;;;;4994839;28;20134;-65
2021/03/19 05:11:04;;;;;;;25.05;10.13;;;;;;;;;;4995930;28;20039;-66
2021/03/19 05:13:30;;;;;;;21.10;11.07;;;;;;;;;;4997339;28;20066;-66
2021/03/19 05:15:55;;;;;;;16.42;9.20;;;;;;;;;;4997169;28;20538;-66
2021/03/19 05:18:20;;;;;;;18.70;9.73;;;;;;;;;;4997341;28;20057;-66
2021/03/19 05:20:46;;;;;;;14.50;7.82;;;;;;;;;;4996828;28;20044;-65
2021/03/19 05:23:18;;;;;;;15.55;7.50;;;;;;;;;;4997081;28;20097;-65
2021/03/19 05:25:44;;;;;;;15.20;7.85;;;;;;;;;;4996846;28;20045;-65
2021/03/19 05:28:09;;;;;;;13.40;7.82;;;;;;;;;;4996905;28;20034;-65
2021/03/19 05:30:34;;;;;;;12.40;7.13;;;;;;;;;;4996890;28;20018;-65
2021/03/19 05:33:02;;;;;;;9.70;5.07;;;;;;;;;;4997086;28;20034;-65
2021/03/19 05:35:27;;;;;;;11.23;5.78;;;;;;;;;;4996217;28;20072;-66
2021/03/19 05:37:52;;;;;;;13.63;7.10;;;;;;;;;;4997059;28;20026;-65
2021/03/19 05:40:23;;;;;;;11.98;6.63;;;;;;;;;;4996793;28;20037;-65
2021/03/19 05:42:48;;;;;;;13.75;6.65;;;;;;;;;;4996844;28;20026;-65
2021/03/19 05:45:13;;;;;;;15.15;6.60;;;;;;;;;;4996799;28;20061;-65
2021/03/19 05:47:39;;;;;;;11.93;7.05;;;;;;;;;;4996749;28;20382;-65
2021/03/19 05:50:05;;;;;;;11.70;6.18;;;;;;;;;;4996560;28;20037;-65
2021/03/19 05:52:35;;;;;;;13.75;7.32;;;;;;;;;;4996709;28;20415;-65
2021/03/19 05:55:12;;;;;;;12.13;7.00;;;;;;;;;;4996161;28;20046;-65
2021/03/19 05:57:37;;;;;;;15.68;7.10;;;;;;;;;;4996556;28;20035;-65
2021/03/19 06:00:06;;;;;;;16.67;7.07;;;;;;;;;;4996109;28;20037;-65
2021/03/19 06:02:31;;;;;;;12.50;6.82;;;;;;;;;;4996532;28;20034;-65
2021/03/19 06:05:00;;;;;;;14.27;7.20;;;;;;;;;;4996190;28;20019;-65
2021/03/19 06:07:44;;;;;;;15.45;7.63;;;;;;;;;;4996676;28;20034;-65
2021/03/19 06:10:21;;;;;;;16.88;6.93;;;;;;;;;;4996283;28;20069;-65
2021/03/19 06:12:47;;;;;;;10.95;6.20;;;;;;;;;;4996008;28;20041;-65
2021/03/19 06:15:23;;;;;;;10.38;6.00;;;;;;;;;;4996163;28;20054;-65
2021/03/19 06:17:49;;;;;;;11.38;6.03;;;;;;;;;;4996145;28;20125;-65
2021/03/19 06:20:15;;;;;;;13.13;5.70;;;;;;;;;;4995309;28;20117;-66
2021/03/19 06:22:45;;;;;;;10.95;5.82;;;;;;;;;;4996045;28;20026;-66
2021/03/19 06:25:11;;;;;;;10.60;5.35;;;;;;;;;;4996030;28;20049;-65
2021/03/19 06:27:46;;;;;;;8.05;4.85;;;;;;;;;;4995953;28;20034;-65
2021/03/19 06:30:19;;;;;;;9.32;5.53;;;;;;;;;;4995915;28;20058;-65
2021/03/19 06:32:58;;;;;;;9.30;4.53;;;;;;;;;;4995837;28;20394;-65
2021/03/19 06:35:30;;;;;;;8.35;4.25;;;;;;;;;;4995487;28;20451;-65
2021/03/19 06:38:16;;;;;;;6.63;4.20;;;;;;;;;;4995812;28;20057;-65
2021/03/19 06:40:41;;;;;;;8.48;4.00;;;;;;;;;;4995402;28;20081;-65
2021/03/19 06:43:11;;;;;;;6.63;3.63;;;;;;;;;;4995660;28;20043;-65
2021/03/19 06:45:36;;;;;;;5.47;3.10;;;;;;;;;;4995692;28;20076;-66
2021/03/19 06:48:02;;;;;;;5.45;3.42;;;;;;;;;;4995398;28;20030;-65
2021/03/19 06:50:28;;;;;;;5.68;2.75;;;;;;;;;;4989304;28;20034;-65
2021/03/19 06:53:12;;;;;;;6.68;3.30;;;;;;;;;;4980173;28;20019;-65
2021/03/19 06:55:42;;;;;;;5.53;2.55;;;;;;;;;;4974507;28;20373;-65
2021/03/19 06:58:07;;;;;;;2.63;1.45;;;;;;;;;;4975756;28;20476;-65
2021/03/19 07:00:35;;;;;;;3.22;1.85;;;;;;;;;;4984165;28;20038;-65
2021/03/19 07:03:12;;;;;;;4.28;2.53;;;;;;;;;;4976505;28;20037;-65
2021/03/19 07:05:52;;;;;;;4.15;2.42;;;;;;;;;;4975214;28;20114;-65
2021/03/19 07:08:20;;;;;;;4.22;2.40;;;;;;;;;;4993242;28;20038;-65
2021/03/19 07:10:54;;;;;;;4.80;2.28;;;;;;;;;;4992840;28;20650;-65
2021/03/19 07:13:28;;;;;;;6.05;2.85;;;;;;;;;;4992931;28;20030;-65
2021/03/19 07:15:53;;;;;;;4.72;2.83;;;;;;;;;;4992852;28;20081;-65
2021/03/19 07:18:25;;;;;;;3.75;2.53;;;;;;;;;;4991083;28;20403;-66
2021/03/19 07:21:14;;;;;;;4.15;1.88;;;;;;;;;;4991920;28;20042;-65
2021/03/19 07:23:56;;;;;;;5.25;2.40;;;;;;;;;;4992156;28;20109;-65
2021/03/19 07:26:29;;;;;;;5.60;2.30;;;;;;;;;;4988854;28;20026;-65
2021/03/19 07:29:13;;;;;;;4.15;2.08;;;;;;;;;;4979829;28;20539;-65
2021/03/19 07:31:47;;;;;;;3.17;1.92;;;;;;;;;;4990412;28;20073;-65
2021/03/19 07:34:25;;;;;;;4.95;2.40;;;;;;;;;;4992057;28;20522;-65
2021/03/19 07:37:09;;;;;;;4.10;2.22;;;;;;;;;;4993138;28;20057;-66
2021/03/19 07:40:06;;;;;;;4.85;2.13;;;;;;;;;;4993265;28;20030;-65
2021/03/19 07:42:50;;;;;;;3.03;1.70;;;;;;;;;;4967215;28;20112;-67
2021/03/19 07:45:45;;;;;;;5.00;2.00;;;;;;;;;;4990617;28;20115;-65
2021/03/19 07:48:16;;;;;;;2.88;1.83;;;;;;;;;;4981226;28;20058;-65
2021/03/19 07:50:58;;;;;;;5.03;2.35;;;;;;;;;;4990304;28;20081;-66
2021/03/19 07:53:38;;;;;;;5.40;1.90;;;;;;;;;;4991376;28;20391;-65
2021/03/19 07:56:24;;;;;;;6.95;2.47;;;;;;;;;;4991099;28;20049;-65
2021/03/19 07:59:08;;;;;;;3.25;2.08;;;;;;;;;;4983515;28;20065;-65
2021/03/19 08:01:39;;;;;;;4.35;2.28;;;;;;;;;;4990813;28;20493;-65
2021/03/19 08:04:40;;;;;;;7.38;3.10;;;;;;;;;;4990975;28;20026;-66
2021/03/19 08:07:23;;;;;;;4.82;2.25;;;;;;;;;;4933911;29;20059;-66
2021/03/19 08:09:58;;;;;;;4.53;2.20;;;;;;;;;;4987225;28;20509;-65
2021/03/19 08:12:34;;;;;;;3.38;1.70;;;;;;;;;;4990914;28;20038;-65
2021/03/19 08:15:18;;;;;;;3.78;1.85;;;;;;;;;;4990625;28;20084;-65
2021/03/19 08:17:53;;;;;;;3.13;1.70;;;;;;;;;;4990148;28;20026;-65
2021/03/19 08:20:24;;;;;;;3.35;1.65;;;;;;;;;;4990987;28;20034;-65
2021/03/19 08:22:56;;;;;;;3.50;1.60;;;;;;;;;;4990867;28;20371;-65
2021/03/19 08:25:23;;;;;;;2.88;1.75;;;;;;;;;;4990363;28;20101;-65
2021/03/19 08:28:04;;;;;;;3.92;2.15;;;;;;;;;;4991101;28;20038;-65
2021/03/19 08:30:32;;;;;;;6.05;2.58;;;;;;;;;;4990826;28;20041;-65
2021/03/19 08:33:05;;;;;;;4.47;2.63;;;;;;;;;;4990446;28;20491;-65
2021/03/19 08:35:46;;;;;;;5.25;2.67;;;;;;;;;;4990545;28;20046;-65
2021/03/19 08:38:24;;;;;;;5.35;3.30;;;;;;;;;;4990486;28;20038;-65
2021/03/19 08:40:52;;;;;;;6.68;3.17;;;;;;;;;;4982331;28;20026;-67
2021/03/19 08:43:26;;;;;;;5.85;3.30;;;;;;;;;;4974001;28;20030;-65
2021/03/19 08:46:15;;;;;;;7.53;2.97;;;;;;;;;;4964410;28;20074;-65
2021/03/19 08:48:53;;;;;;;5.50;3.00;;;;;;;;;;4966034;28;20504;-65
2021/03/19 08:51:22;;;;;;;5.43;2.78;;;;;;;;;;4969875;28;20126;-66
2021/03/19 08:54:06;;;;;;;6.45;2.38;;;;;;;;;;4989188;28;20046;-65
2021/03/19 08:56:32;;;;;;;4.40;2.20;;;;;;;;;;4988878;28;20042;-65
2021/03/19 08:58:57;;;;;;;3.50;1.80;;;;;;;;;;4990432;28;20466;-65
2021/03/19 09:01:41;;;;;;;5.13;2.05;;;;;;;;;;4989299;28;20053;-65
2021/03/19 09:04:06;;;;;;;3.58;1.65;;;;;;;;;;4989759;28;20034;-65
2021/03/19 09:06:32;;;;;;;3.67;2.03;;;;;;;;;;4989803;28;20430;-65
2021/03/19 09:09:00;;;;;;;3.63;1.90;;;;;;;;;;4988258;28;20109;-65
2021/03/19 09:11:38;;;;;;;4.03;1.80;;;;;;;;;;4989014;28;20112;-65
2021/03/19 09:14:03;;;;;;;5.05;2.05;;;;;;;;;;4990206;28;20026;-66
2021/03/19 09:16:44;;;;;;;3.67;1.90;;;;;;;;;;4988505;28;20538;-65
2021/03/19 09:19:28;;;;;;;5.35;1.73;;;;;;;;;;4989338;28;20030;-66
2021/03/19 09:21:53;;;;;;;5.32;1.77;;;;;;;;;;4989095;28;20031;-65
2021/03/19 09:24:22;;;;;;;3.65;1.83;;;;;;;;;;4989803;28;20391;-66
2021/03/19 09:26:55;;;;;;;4.35;1.98;;;;;;;;;;4988707;28;20073;-65
2021/03/19 09:29:23;;;;;;;3.08;1.42;;;;;;;;;;4989011;28;20031;-66
2021/03/19 09:31:50;;;;;;;2.80;1.63;;;;;;;;;;4989496;28;20125;-65
2021/03/19 09:34:18;;;;;;;4.85;1.70;;;;;;;;;;4990335;28;20022;-67
2021/03/19 09:37:03;;;;;;;3.30;1.90;;;;;;;;;;4989259;28;20487;-65
2021/03/19 09:39:51;;;;;;;3.77;1.83;;;;;;;;;;4989017;28;20187;-65
2021/03/19 09:42:19;;;;;;;3.13;1.67;;;;;;;;;;4990628;28;20364;-65
2021/03/19 09:44:45;;;;;;;3.35;1.98;;;;;;;;;;4989078;28;20056;-66
2021/03/19 09:47:10;;;;;;;4.75;1.70;;;;;;;;;;4988610;28;20387;-65
2021/03/19 09:49:35;;;;;;;3.15;1.98;;;;;;;;;;4974430;28;20030;-65
2021/03/19 09:52:17;;;;;;;3.85;1.77;;;;;;;;;;4983708;28;20043;-66
2021/03/19 09:54:43;;;;;;;4.18;1.83;;;;;;;;;;4985727;28;20100;-65
2021/03/19 09:57:13;;;;;;;3.33;1.75;;;;;;;;;;4988798;28;20038;-66
2021/03/19 09:59:40;;;;;;;4.20;2.28;;;;;;;;;;4988102;28;20255;-66
2021/03/19 10:02:23;;;;;;;2.53;1.63;;;;;;;;;;4988102;28;20030;-65
2021/03/19 10:04:49;;;;;;;2.38;1.30;;;;;;;;;;4988455;28;20026;-65
2021/03/19 10:07:17;;;;;;;5.13;1.30;;;;;;;;;;4989315;28;20032;-65
2021/03/19 10:09:47;;;;;;;3.17;1.50;;;;;;;;;;4988543;28;20035;-65
2021/03/19 10:12:12;;;;;;;2.33;1.20;;;;;;;;;;4988267;28;20446;-66
2021/03/19 10:14:42;;;;;;;2.55;1.08;;;;;;;;;;4988282;28;20088;-66
2021/03/19 10:17:20;;;;;;;2.50;1.40;;;;;;;;;;4987934;28;20034;-67
2021/03/19 10:19:49;;;;;;;3.35;1.63;;;;;;;;;;4988683;28;20042;-65
2021/03/19 10:22:28;;;;;;;3.70;1.63;;;;;;;;;;4988017;28;20038;-65
2021/03/19 10:24:53;;;;;;;2.47;1.60;;;;;;;;;;4988014;28;20092;-66
2021/03/19 10:27:20;;;;;;;3.13;1.67;;;;;;;;;;4987864;28;20050;-65
2021/03/19 10:29:47;;;;;;;4.10;1.45;;;;;;;;;;4987769;28;20487;-66
2021/03/19 10:32:18;;;;;;;3.42;1.50;;;;;;;;;;4987725;28;20027;-66
2021/03/19 10:35:06;;;;;;;3.05;1.70;;;;;;;;;;4989163;28;20053;-65
2021/03/19 10:37:41;;;;;;;2.75;1.40;;;;;;;;;;4980213;28;20042;-66
2021/03/19 10:40:15;;;;;;;2.13;1.20;;;;;;;;;;4986212;28;20057;-66
2021/03/19 10:42:44;;;;;;;2.17;1.35;;;;;;;;;;4987131;28;20034;-65
2021/03/19 10:45:16;;;;;;;2.47;1.10;;;;;;;;;;4987978;28;20065;-66
2021/03/19 10:47:47;;;;;;;4.05;1.73;;;;;;;;;;4987077;28;20141;-66
2021/03/19 10:50:20;;;;;;;3.90;1.42;;;;;;;;;;4987896;28;20089;-66
2021/03/19 10:52:47;;;;;;;3.20;1.30;;;;;;;;;;4987231;28;20030;-66
2021/03/19 10:55:15;;;;;;;1.80;1.13;;;;;;;;;;4987191;28;20050;-66
2021/03/19 10:57:41;;;;;;;4.72;1.10;;;;;;;;;;4988033;28;20048;-65
2021/03/19 11:00:21;;;;;;;2.47;1.20;;;;;;;;;;4978154;28;20029;-65
2021/03/19 11:03:02;;;;;;;4.35;1.50;;;;;;;;;;4987243;28;20038;-66
2021/03/19 11:05:28;;;;;;;4.55;1.80;;;;;;;;;;4987455;28;20149;-66
2021/03/19 11:07:54;;;;;;;4.75;1.35;;;;;;;;;;4986409;28;20070;-66
2021/03/19 11:10:19;;;;;;;2.97;1.40;;;;;;;;;;4993166;28;20475;-65
2021/03/19 11:12:44;;;;;;;2.22;1.27;;;;;;;;;;4989928;28;20030;-65
2021/03/19 11:15:13;;;;;;;2.20;1.23;;;;;;;;;;4992336;28;20050;-66
2021/03/19 11:17:38;;;;;;;5.07;1.30;;;;;;;;;;4995893;28;20022;-66
2021/03/19 11:20:09;;;;;;;2.63;1.45;;;;;;;;;;4990649;28;20506;-66
2021/03/19 11:22:36;;;;;;;2.95;1.45;;;;;;;;;;4988641;28;20039;-65
2021/03/19 11:25:28;;;;;;;1.33;1.00;;;;;;;;;;4987277;28;20038;-65
2021/03/19 11:27:54;;;;;;;1.77;1.17;;;;;;;;;;4970996;28;20038;-65
2021/03/19 11:30:27;;;;;;;2.55;1.40;;;;;;;;;;4999450;28;20046;-66
2021/03/19 11:33:19;;;;;;;2.92;1.60;;;;;;;;;;4983806;28;20077;-65
2021/03/19 11:36:23;;;;;;;3.13;1.75;;;;;;;;;;4994116;28;20058;-67
2021/03/19 11:38:48;;;;;;;3.05;1.63;;;;;;;;;;5003995;28;20100;-66
2021/03/19 11:41:32;;;;;;;2.67;1.60;;;;;;;;;;5005026;28;20033;-66
2021/03/19 11:43:58;;;;;;;3.70;1.92;;;;;;;;;;5002577;28;20498;-65
2021/03/19 11:46:23;;;;;;;4.30;1.95;;;;;;;;;;4988278;28;20033;-66
2021/03/19 11:48:49;;;;;;;3.28;1.80;;;;;;;;;;4993080;28;20038;-66
2021/03/19 11:51:30;;;;;;;3.45;1.40;;;;;;;;;;5000325;28;20064;-65
2021/03/19 11:53:56;;;;;;;2.20;1.40;;;;;;;;;;4987878;28;20022;-66
2021/03/19 11:56:23;;;;;;;4.47;1.40;;;;;;;;;;4993558;28;20045;-65
2021/03/19 11:58:48;;;;;;;2.70;1.50;;;;;;;;;;4997085;28;20026;-66
2021/03/19 12:01:14;;;;;;;2.17;1.20;;;;;;;;;;4993727;28;20049;-65
2021/03/19 12:03:41;;;;;;;2.58;1.40;;;;;;;;;;4990778;28;20048;-66
2021/03/19 12:06:07;;;;;;;4.35;1.67;;;;;;;;;;5000596;28;20452;-65
2021/03/19 12:08:33;;;;;;;4.53;1.80;;;;;;;;;;4980668;28;20046;-66
2021/03/19 12:10:59;;;;;;;2.90;1.67;;;;;;;;;;4988981;28;20034;-65
2021/03/19 12:13:25;;;;;;;5.28;2.15;;;;;;;;;;4999251;28;20040;-66
2021/03/19 12:15:50;;;;;;;3.58;1.92;;;;;;;;;;5004788;28;20045;-65
2021/03/19 12:18:17;;;;;;;4.63;1.90;;;;;;;;;;4994391;28;20088;-65
2021/03/19 12:20:43;;;;;;;4.50;1.95;;;;;;;;;;4986118;28;20110;-67
2021/03/19 12:23:09;;;;;;;4.50;2.30;;;;;;;;;;4977713;28;20030;-66
2021/03/19 12:25:36;;;;;;;3.80;2.30;;;;;;;;;;4986507;28;20483;-66
2021/03/19 12:28:02;;;;;;;4.03;2.28;;;;;;;;;;4986017;28;20037;-65
2021/03/19 12:30:28;;;;;;;5.15;3.08;;;;;;;;;;4986894;28;20062;-66
2021/03/19 12:32:54;;;;;;;4.53;2.20;;;;;;;;;;4983782;28;20395;-65
2021/03/19 12:35:21;;;;;;;2.88;1.55;;;;;;;;;;4985872;28;20407;-65
2021/03/19 12:37:46;;;;;;;5.00;1.75;;;;;;;;;;4985190;28;20049;-65
2021/03/19 12:40:12;;;;;;;2.70;1.30;;;;;;;;;;4987379;28;20038;-66
2021/03/19 12:42:38;;;;;;;4.43;1.63;;;;;;;;;;4988076;28;20026;-67
2021/03/19 12:45:04;;;;;;;2.83;1.73;;;;;;;;;;4988666;28;20054;-66
2021/03/19 12:47:30;;;;;;;2.03;1.20;;;;;;;;;;4984208;28;20046;-66
2021/03/19 12:49:55;;;;;;;1.48;0.95;;;;;;;;;;4987233;28;20030;-65
2021/03/19 12:52:20;;;;;;;2.38;1.20;;;;;;;;;;4987867;28;20030;-66
2021/03/19 12:54:46;;;;;;;1.40;0.80;;;;;;;;;;4989572;28;20537;-66
2021/03/19 12:57:12;;;;;;;3.03;1.30;;;;;;;;;;4985839;28;20512;-66
2021/03/19 12:59:37;;;;;;;3.25;1.10;;;;;;;;;;4987956;28;20038;-66
2021/03/19 13:02:02;;;;;;;1.67;1.00;;;;;;;;;;4988598;28;20030;-66
2021/03/19 13:04:29;;;;;;;1.90;0.93;;;;;;;;;;4987072;28;20379;-66
2021/03/19 13:06:55;;;;;;;3.13;0.98;;;;;;;;;;4987865;28;20394;-66
2021/03/19 13:09:20;;;;;;;2.58;1.23;;;;;;;;;;4990168;28;20034;-66
2021/03/19 13:11:45;;;;;;;1.95;1.00;;;;;;;;;;4988771;28;20033;-66
2021/03/19 13:14:11;;;;;;;2.10;1.20;;;;;;;;;;4988859;28;20039;-66
2021/03/19 13:16:36;;;;;;;3.38;1.30;;;;;;;;;;4987029;28;20474;-65
2021/03/19 13:19:02;;;;;;;2.33;1.00;;;;;;;;;;4987583;28;20467;-65
2021/03/19 13:21:28;;;;;;;2.55;1.35;;;;;;;;;;4987143;28;20031;-66
2021/03/19 13:23:53;;;;;;;1.63;0.88;;;;;;;;;;4990665;28;20049;-66
2021/03/19 13:26:18;;;;;;;2.45;1.35;;;;;;;;;;4989811;28;20026;-65
2021/03/19 13:28:43;;;;;;;2.53;1.52;;;;;;;;;;4987237;28;20039;-66
2021/03/19 13:31:09;;;;;;;2.40;1.10;;;;;;;;;;4991698;28;20034;-66
2021/03/19 13:33:34;;;;;;;2.80;1.30;;;;;;;;;;4990503;28;20568;-65
2021/03/19 13:36:00;;;;;;;2.47;1.30;;;;;;;;;;4994921;28;20073;-66
2021/03/19 13:38:27;;;;;;;2.65;1.58;;;;;;;;;;4991436;28;20038;-66
2021/03/19 13:40:54;;;;;;;2.45;1.40;;;;;;;;;;4988818;28;20742;-66
2021/03/19 13:43:21;;;;;;;3.28;1.80;;;;;;;;;;4990922;28;20038;-65
2021/03/19 13:45:46;;;;;;;2.75;1.75;;;;;;;;;;4989725;28;20061;-66
2021/03/19 13:48:12;;;;;;;3.10;1.85;;;;;;;;;;4990839;28;20030;-66
2021/03/19 13:50:37;;;;;;;3.35;1.83;;;;;;;;;;4992555;28;20038;-65
2021/03/19 13:53:02;;;;;;;4.57;1.75;;;;;;;;;;4990728;28;20049;-66
2021/03/19 13:55:28;;;;;;;3.67;1.70;;;;;;;;;;4992368;28;20038;-65
2021/03/19 13:57:55;;;;;;;3.47;1.77;;;;;;;;;;4993112;28;20052;-65
2021/03/19 14:00:30;;;;;;;2.75;1.55;;;;;;;;;;4990155;28;20042;-66
2021/03/19 14:02:55;;;;;;;2.47;1.25;;;;;;;;;;4991189;28;20157;-66
2021/03/19 14:05:21;;;;;;;2.75;1.70;;;;;;;;;;4989802;28;20120;-66
2021/03/19 14:07:47;;;;;;;2.63;1.42;;;;;;;;;;4990326;28;20336;-66
2021/03/19 14:10:14;;;;;;;3.63;1.77;;;;;;;;;;4989476;28;20042;-65
2021/03/19 14:12:39;;;;;;;4.22;1.90;;;;;;;;;;4991585;28;20041;-65
2021/03/19 14:15:05;;;;;;;3.22;1.60;;;;;;;;;;4980862;28;20038;-67
2021/03/19 14:17:31;;;;;;;1.90;1.08;;;;;;;;;;4987744;28;20039;-66
2021/03/19 14:19:56;;;;;;;4.28;1.50;;;;;;;;;;4982688;28;21045;-66
2021/03/19 14:22:21;;;;;;;2.78;1.42;;;;;;;;;;4983520;28;20033;-66
2021/03/19 14:24:47;;;;;;;2.83;1.58;;;;;;;;;;4986093;28;20092;-67
2021/03/19 14:27:13;;;;;;;4.05;1.35;;;;;;;;;;4999654;28;20510;-67
2021/03/19 14:29:38;;;;;;;3.63;1.63;;;;;;;;;;4987474;28;20467;-66
2021/03/19 14:32:03;;;;;;;3.63;1.92;;;;;;;;;;4987162;28;20339;-66
2021/03/19 14:34:29;;;;;;;3.13;1.30;;;;;;;;;;4986812;28;20027;-66
2021/03/19 14:36:54;;;;;;;2.70;1.85;;;;;;;;;;4986961;28;20026;-66
2021/03/19 14:39:19;;;;;;;3.97;1.55;;;;;;;;;;4987786;28;20040;-66
2021/03/19 14:41:46;;;;;;;2.88;1.80;;;;;;;;;;4988205;28;20038;-67
2021/03/19 14:44:11;;;;;;;2.15;1.30;;;;;;;;;;4988129;28;20084;-65
2021/03/19 14:46:36;;;;;;;2.30;1.35;;;;;;;;;;4989255;28;20034;-66
2021/03/19 14:49:02;;;;;;;2.88;1.65;;;;;;;;;;4987450;28;20069;-66
2021/03/19 14:51:27;;;;;;;3.28;1.83;;;;;;;;;;4988487;28;20030;-66